sensor_id;sensor_type;location;lat;lon;timestamp;P1;durP1;ratioP1;P2;durP2;ratioP2
18752;SDS011;9505;50.882;5.350;2022-08-01T00:00:40;5.57;;;2.53;;
18752;SDS011;9505;50.882;5.350;2022-08-01T00:03:07;10.57;;;2.30;;
18752;SDS011;9505;50.882;5.350;2022-08-01T00:05:32;7.68;;;2.85;;
18752;SDS011;9505;50.882;5.350;2022-08-01T00:07:58;8.00;;;2.47;;
18752;SDS011;9505;50.882;5.350;2022-08-01T00:10:24;6.78;;;2.42;;
18752;SDS011;9505;50.882;5.350;2022-08-01T00:12:50;9.98;;;2.83;;
18752;SDS011;9505;50.882;5.350;2022-08-01T00:15:16;4.13;;;1.90;;
18752;SDS011;9505;50.882;5.350;2022-08-01T00:17:42;6.85;;;2.17;;
18752;SDS011;9505;50.882;5.350;2022-08-01T00:20:10;6.43;;;2.50;;
18752;SDS011;9505;50.882;5.350;2022-08-01T00:22:37;8.93;;;2.60;;
18752;SDS011;9505;50.882;5.350;2022-08-01T00:25:03;7.88;;;2.55;;
18752;SDS011;9505;50.882;5.350;2022-08-01T00:27:29;10.90;;;2.15;;
18752;SDS011;9505;50.882;5.350;2022-08-01T00:29:56;6.85;;;2.47;;
18752;SDS011;9505;50.882;5.350;2022-08-01T00:32:22;8.32;;;2.30;;
18752;SDS011;9505;50.882;5.350;2022-08-01T00:34:47;6.13;;;2.40;;
18752;SDS011;9505;50.882;5.350;2022-08-01T00:37:13;7.75;;;2.10;;
18752;SDS011;9505;50.882;5.350;2022-08-01T00:39:39;8.02;;;2.53;;
18752;SDS011;9505;50.882;5.350;2022-08-01T00:42:08;8.27;;;2.47;;
18752;SDS011;9505;50.882;5.350;2022-08-01T00:44:35;7.00;;;2.50;;
18752;SDS011;9505;50.882;5.350;2022-08-01T00:47:01;6.20;;;2.15;;
18752;SDS011;9505;50.882;5.350;2022-08-01T00:49:28;8.68;;;2.70;;
18752;SDS011;9505;50.882;5.350;2022-08-01T00:51:54;6.47;;;2.45;;
18752;SDS011;9505;50.882;5.350;2022-08-01T00:54:20;9.55;;;2.70;;
18752;SDS011;9505;50.882;5.350;2022-08-01T00:56:47;6.60;;;2.33;;
18752;SDS011;9505;50.882;5.350;2022-08-01T00:59:12;6.90;;;2.22;;
18752;SDS011;9505;50.882;5.350;2022-08-01T01:01:41;10.15;;;2.60;;
18752;SDS011;9505;50.882;5.350;2022-08-01T01:04:07;7.03;;;2.15;;
18752;SDS011;9505;50.882;5.350;2022-08-01T01:09:56;5.07;;;2.20;;
18752;SDS011;9505;50.882;5.350;2022-08-01T01:12:46;13.20;;;2.25;;
18752;SDS011;9505;50.882;5.350;2022-08-01T01:18:03;7.78;;;2.38;;
18752;SDS011;9505;50.882;5.350;2022-08-01T01:20:35;11.38;;;2.47;;
18752;SDS011;9505;50.882;5.350;2022-08-01T01:31:06;9.23;;;2.60;;
18752;SDS011;9505;50.882;5.350;2022-08-01T01:33:36;8.07;;;2.53;;
18752;SDS011;9505;50.882;5.350;2022-08-01T01:36:05;10.52;;;2.83;;
18752;SDS011;9505;50.882;5.350;2022-08-01T01:38:34;6.55;;;2.67;;
18752;SDS011;9505;50.882;5.350;2022-08-01T01:41:07;7.03;;;2.13;;
18752;SDS011;9505;50.882;5.350;2022-08-01T01:43:35;7.32;;;2.20;;
18752;SDS011;9505;50.882;5.350;2022-08-01T01:46:02;8.55;;;2.72;;
18752;SDS011;9505;50.882;5.350;2022-08-01T01:48:29;7.70;;;2.30;;
18752;SDS011;9505;50.882;5.350;2022-08-01T01:50:57;10.45;;;2.92;;
18752;SDS011;9505;50.882;5.350;2022-08-01T01:53:25;7.28;;;2.53;;
18752;SDS011;9505;50.882;5.350;2022-08-01T01:55:53;9.77;;;2.53;;
18752;SDS011;9505;50.882;5.350;2022-08-01T01:58:21;7.30;;;2.60;;
18752;SDS011;9505;50.882;5.350;2022-08-01T02:00:48;5.47;;;2.45;;
18752;SDS011;9505;50.882;5.350;2022-08-01T02:03:16;8.60;;;2.70;;
18752;SDS011;9505;50.882;5.350;2022-08-01T02:05:43;9.65;;;2.20;;
18752;SDS011;9505;50.882;5.350;2022-08-01T02:08:10;6.80;;;2.50;;
18752;SDS011;9505;50.882;5.350;2022-08-01T02:10:39;9.80;;;2.22;;
18752;SDS011;9505;50.882;5.350;2022-08-01T02:13:06;9.50;;;2.92;;
18752;SDS011;9505;50.882;5.350;2022-08-01T02:15:33;6.72;;;2.50;;
18752;SDS011;9505;50.882;5.350;2022-08-01T02:18:03;10.32;;;2.53;;
18752;SDS011;9505;50.882;5.350;2022-08-01T02:20:32;8.82;;;2.58;;
18752;SDS011;9505;50.882;5.350;2022-08-01T02:23:06;7.35;;;2.17;;
18752;SDS011;9505;50.882;5.350;2022-08-01T02:25:39;5.95;;;2.03;;
18752;SDS011;9505;50.882;5.350;2022-08-01T02:28:15;5.10;;;1.85;;
18752;SDS011;9505;50.882;5.350;2022-08-01T02:30:52;5.22;;;2.40;;
18752;SDS011;9505;50.882;5.350;2022-08-01T02:33:20;7.22;;;2.53;;
18752;SDS011;9505;50.882;5.350;2022-08-01T02:35:50;5.00;;;1.92;;
18752;SDS011;9505;50.882;5.350;2022-08-01T02:38:20;8.23;;;2.38;;
18752;SDS011;9505;50.882;5.350;2022-08-01T02:40:49;7.50;;;2.45;;
18752;SDS011;9505;50.882;5.350;2022-08-01T02:43:19;6.15;;;2.17;;
18752;SDS011;9505;50.882;5.350;2022-08-01T02:45:50;7.13;;;2.53;;
18752;SDS011;9505;50.882;5.350;2022-08-01T02:48:19;8.50;;;2.72;;
18752;SDS011;9505;50.882;5.350;2022-08-01T02:50:47;6.28;;;2.17;;
18752;SDS011;9505;50.882;5.350;2022-08-01T02:53:14;6.97;;;2.65;;
18752;SDS011;9505;50.882;5.350;2022-08-01T02:55:43;6.80;;;2.28;;
18752;SDS011;9505;50.882;5.350;2022-08-01T02:58:12;8.98;;;3.17;;
18752;SDS011;9505;50.882;5.350;2022-08-01T03:00:41;8.13;;;2.35;;
18752;SDS011;9505;50.882;5.350;2022-08-01T03:03:09;7.90;;;2.72;;
18752;SDS011;9505;50.882;5.350;2022-08-01T03:05:36;10.32;;;2.60;;
18752;SDS011;9505;50.882;5.350;2022-08-01T03:08:04;6.78;;;2.78;;
18752;SDS011;9505;50.882;5.350;2022-08-01T03:10:33;6.07;;;2.28;;
18752;SDS011;9505;50.882;5.350;2022-08-01T03:13:01;12.25;;;3.08;;
18752;SDS011;9505;50.882;5.350;2022-08-01T03:15:30;9.68;;;2.80;;
18752;SDS011;9505;50.882;5.350;2022-08-01T03:17:58;6.43;;;2.65;;
18752;SDS011;9505;50.882;5.350;2022-08-01T03:20:26;10.63;;;3.38;;
18752;SDS011;9505;50.882;5.350;2022-08-01T03:22:53;9.27;;;2.95;;
18752;SDS011;9505;50.882;5.350;2022-08-01T03:25:19;5.90;;;2.70;;
18752;SDS011;9505;50.882;5.350;2022-08-01T03:27:47;7.45;;;2.60;;
18752;SDS011;9505;50.882;5.350;2022-08-01T03:30:19;13.13;;;3.55;;
18752;SDS011;9505;50.882;5.350;2022-08-01T03:32:47;6.18;;;2.58;;
18752;SDS011;9505;50.882;5.350;2022-08-01T03:35:13;10.80;;;3.17;;
18752;SDS011;9505;50.882;5.350;2022-08-01T03:37:48;10.25;;;3.00;;
18752;SDS011;9505;50.882;5.350;2022-08-01T03:40:20;12.43;;;3.65;;
18752;SDS011;9505;50.882;5.350;2022-08-01T03:42:50;11.68;;;3.33;;
18752;SDS011;9505;50.882;5.350;2022-08-01T03:45:21;9.57;;;2.85;;
18752;SDS011;9505;50.882;5.350;2022-08-01T03:47:52;13.55;;;3.40;;
18752;SDS011;9505;50.882;5.350;2022-08-01T03:50:23;8.73;;;3.20;;
18752;SDS011;9505;50.882;5.350;2022-08-01T03:52:50;7.50;;;3.10;;
18752;SDS011;9505;50.882;5.350;2022-08-01T03:55:16;8.98;;;2.88;;
18752;SDS011;9505;50.882;5.350;2022-08-01T03:57:44;6.43;;;2.88;;
18752;SDS011;9505;50.882;5.350;2022-08-01T04:00:12;11.93;;;3.28;;
18752;SDS011;9505;50.882;5.350;2022-08-01T04:02:38;11.40;;;3.13;;
18752;SDS011;9505;50.882;5.350;2022-08-01T04:05:04;10.55;;;3.08;;
18752;SDS011;9505;50.882;5.350;2022-08-01T04:07:32;19.25;;;4.65;;
18752;SDS011;9505;50.882;5.350;2022-08-01T04:10:01;12.50;;;3.38;;
18752;SDS011;9505;50.882;5.350;2022-08-01T04:12:28;14.95;;;3.97;;
18752;SDS011;9505;50.882;5.350;2022-08-01T04:14:53;9.25;;;3.40;;
18752;SDS011;9505;50.882;5.350;2022-08-01T04:17:19;9.50;;;3.25;;
18752;SDS011;9505;50.882;5.350;2022-08-01T04:19:45;8.95;;;3.00;;
18752;SDS011;9505;50.882;5.350;2022-08-01T04:22:11;10.60;;;3.47;;
18752;SDS011;9505;50.882;5.350;2022-08-01T04:24:38;12.07;;;3.63;;
18752;SDS011;9505;50.882;5.350;2022-08-01T04:27:07;10.95;;;4.00;;
18752;SDS011;9505;50.882;5.350;2022-08-01T04:29:36;12.30;;;4.45;;
18752;SDS011;9505;50.882;5.350;2022-08-01T04:32:04;17.23;;;3.72;;
18752;SDS011;9505;50.882;5.350;2022-08-01T04:34:34;10.60;;;3.67;;
18752;SDS011;9505;50.882;5.350;2022-08-01T04:37:03;15.70;;;4.65;;
18752;SDS011;9505;50.882;5.350;2022-08-01T04:39:31;14.52;;;4.68;;
18752;SDS011;9505;50.882;5.350;2022-08-01T04:41:59;7.90;;;3.58;;
18752;SDS011;9505;50.882;5.350;2022-08-01T04:44:28;18.02;;;5.43;;
18752;SDS011;9505;50.882;5.350;2022-08-01T04:46:57;18.15;;;5.57;;
18752;SDS011;9505;50.882;5.350;2022-08-01T04:49:28;16.50;;;5.32;;
18752;SDS011;9505;50.882;5.350;2022-08-01T04:51:56;17.42;;;5.55;;
18752;SDS011;9505;50.882;5.350;2022-08-01T04:54:28;17.45;;;5.18;;
18752;SDS011;9505;50.882;5.350;2022-08-01T04:56:55;17.80;;;5.40;;
18752;SDS011;9505;50.882;5.350;2022-08-01T04:59:34;15.05;;;4.63;;
18752;SDS011;9505;50.882;5.350;2022-08-01T05:02:23;11.00;;;5.03;;
18752;SDS011;9505;50.882;5.350;2022-08-01T05:04:49;13.35;;;5.10;;
18752;SDS011;9505;50.882;5.350;2022-08-01T05:07:15;14.95;;;5.03;;
18752;SDS011;9505;50.882;5.350;2022-08-01T05:09:40;20.23;;;6.63;;
18752;SDS011;9505;50.882;5.350;2022-08-01T05:12:06;16.65;;;5.20;;
18752;SDS011;9505;50.882;5.350;2022-08-01T05:14:33;15.82;;;5.55;;
18752;SDS011;9505;50.882;5.350;2022-08-01T05:17:00;11.90;;;5.15;;
18752;SDS011;9505;50.882;5.350;2022-08-01T05:19:28;15.55;;;5.80;;
18752;SDS011;9505;50.882;5.350;2022-08-01T05:21:56;17.08;;;5.30;;
18752;SDS011;9505;50.882;5.350;2022-08-01T05:24:22;20.90;;;7.03;;
18752;SDS011;9505;50.882;5.350;2022-08-01T05:26:48;17.48;;;5.75;;
18752;SDS011;9505;50.882;5.350;2022-08-01T05:29:14;18.23;;;5.85;;
18752;SDS011;9505;50.882;5.350;2022-08-01T05:31:40;19.92;;;6.22;;
18752;SDS011;9505;50.882;5.350;2022-08-01T05:34:06;20.95;;;6.70;;
18752;SDS011;9505;50.882;5.350;2022-08-01T05:36:31;18.70;;;6.05;;
18752;SDS011;9505;50.882;5.350;2022-08-01T05:38:57;20.15;;;6.68;;
18752;SDS011;9505;50.882;5.350;2022-08-01T05:41:23;17.15;;;6.25;;
18752;SDS011;9505;50.882;5.350;2022-08-01T05:43:49;16.48;;;6.10;;
18752;SDS011;9505;50.882;5.350;2022-08-01T05:46:14;18.80;;;5.93;;
18752;SDS011;9505;50.882;5.350;2022-08-01T05:48:40;20.88;;;6.72;;
18752;SDS011;9505;50.882;5.350;2022-08-01T05:51:06;11.82;;;5.63;;
18752;SDS011;9505;50.882;5.350;2022-08-01T05:53:31;17.63;;;6.63;;
18752;SDS011;9505;50.882;5.350;2022-08-01T05:55:59;20.55;;;6.90;;
18752;SDS011;9505;50.882;5.350;2022-08-01T05:58:26;22.45;;;8.15;;
18752;SDS011;9505;50.882;5.350;2022-08-01T06:00:52;19.15;;;7.95;;
18752;SDS011;9505;50.882;5.350;2022-08-01T06:03:18;28.48;;;10.10;;
18752;SDS011;9505;50.882;5.350;2022-08-01T06:05:44;31.23;;;10.02;;
18752;SDS011;9505;50.882;5.350;2022-08-01T06:08:09;27.20;;;10.77;;
18752;SDS011;9505;50.882;5.350;2022-08-01T06:10:35;33.45;;;11.60;;
18752;SDS011;9505;50.882;5.350;2022-08-01T06:13:01;30.90;;;11.90;;
18752;SDS011;9505;50.882;5.350;2022-08-01T06:15:28;30.65;;;11.27;;
18752;SDS011;9505;50.882;5.350;2022-08-01T06:17:54;36.70;;;12.57;;
18752;SDS011;9505;50.882;5.350;2022-08-01T06:20:20;34.55;;;12.38;;
18752;SDS011;9505;50.882;5.350;2022-08-01T06:22:46;35.28;;;12.43;;
18752;SDS011;9505;50.882;5.350;2022-08-01T06:25:11;32.85;;;11.75;;
18752;SDS011;9505;50.882;5.350;2022-08-01T06:27:37;34.78;;;11.63;;
18752;SDS011;9505;50.882;5.350;2022-08-01T06:30:03;37.33;;;11.88;;
18752;SDS011;9505;50.882;5.350;2022-08-01T06:32:30;33.25;;;11.80;;
18752;SDS011;9505;50.882;5.350;2022-08-01T06:34:56;35.45;;;11.00;;
18752;SDS011;9505;50.882;5.350;2022-08-01T06:37:22;32.78;;;12.20;;
18752;SDS011;9505;50.882;5.350;2022-08-01T06:39:48;30.00;;;12.40;;
18752;SDS011;9505;50.882;5.350;2022-08-01T06:42:14;32.15;;;11.63;;
18752;SDS011;9505;50.882;5.350;2022-08-01T06:44:40;35.42;;;12.70;;
18752;SDS011;9505;50.882;5.350;2022-08-01T06:47:06;30.17;;;10.43;;
18752;SDS011;9505;50.882;5.350;2022-08-01T06:49:31;30.02;;;10.52;;
18752;SDS011;9505;50.882;5.350;2022-08-01T06:51:57;35.22;;;11.63;;
18752;SDS011;9505;50.882;5.350;2022-08-01T06:54:24;28.58;;;10.57;;
18752;SDS011;9505;50.882;5.350;2022-08-01T06:56:49;27.30;;;10.02;;
18752;SDS011;9505;50.882;5.350;2022-08-01T06:59:15;21.52;;;8.63;;
18752;SDS011;9505;50.882;5.350;2022-08-01T07:01:40;26.08;;;8.77;;
18752;SDS011;9505;50.882;5.350;2022-08-01T07:04:06;30.27;;;8.93;;
18752;SDS011;9505;50.882;5.350;2022-08-01T07:06:32;25.70;;;8.57;;
18752;SDS011;9505;50.882;5.350;2022-08-01T07:08:57;20.80;;;8.27;;
18752;SDS011;9505;50.882;5.350;2022-08-01T07:11:23;24.20;;;8.68;;
18752;SDS011;9505;50.882;5.350;2022-08-01T07:13:49;29.95;;;8.57;;
18752;SDS011;9505;50.882;5.350;2022-08-01T07:16:15;26.35;;;9.18;;
18752;SDS011;9505;50.882;5.350;2022-08-01T07:18:41;15.77;;;6.50;;
18752;SDS011;9505;50.882;5.350;2022-08-01T07:21:07;22.63;;;7.18;;
18752;SDS011;9505;50.882;5.350;2022-08-01T07:23:33;22.25;;;7.50;;
18752;SDS011;9505;50.882;5.350;2022-08-01T07:25:59;19.55;;;7.20;;
18752;SDS011;9505;50.882;5.350;2022-08-01T07:28:26;22.67;;;6.72;;
18752;SDS011;9505;50.882;5.350;2022-08-01T07:30:54;20.27;;;6.45;;
18752;SDS011;9505;50.882;5.350;2022-08-01T07:33:19;10.70;;;4.68;;
18752;SDS011;9505;50.882;5.350;2022-08-01T07:35:45;19.80;;;6.68;;
18752;SDS011;9505;50.882;5.350;2022-08-01T07:38:10;20.75;;;7.30;;
18752;SDS011;9505;50.882;5.350;2022-08-01T07:40:36;17.42;;;6.15;;
18752;SDS011;9505;50.882;5.350;2022-08-01T07:43:02;16.90;;;6.20;;
18752;SDS011;9505;50.882;5.350;2022-08-01T07:45:28;14.48;;;5.20;;
18752;SDS011;9505;50.882;5.350;2022-08-01T07:47:53;18.90;;;5.93;;
18752;SDS011;9505;50.882;5.350;2022-08-01T07:50:19;12.98;;;5.60;;
18752;SDS011;9505;50.882;5.350;2022-08-01T07:52:45;17.75;;;5.72;;
18752;SDS011;9505;50.882;5.350;2022-08-01T07:55:11;20.30;;;5.95;;
18752;SDS011;9505;50.882;5.350;2022-08-01T07:57:37;17.17;;;6.30;;
18752;SDS011;9505;50.882;5.350;2022-08-01T08:00:04;16.83;;;5.43;;
18752;SDS011;9505;50.882;5.350;2022-08-01T08:02:31;13.55;;;4.93;;
18752;SDS011;9505;50.882;5.350;2022-08-01T08:04:57;22.83;;;6.43;;
18752;SDS011;9505;50.882;5.350;2022-08-01T08:07:23;16.08;;;5.82;;
18752;SDS011;9505;50.882;5.350;2022-08-01T08:09:49;15.07;;;5.28;;
18752;SDS011;9505;50.882;5.350;2022-08-01T08:12:14;13.52;;;5.25;;
18752;SDS011;9505;50.882;5.350;2022-08-01T08:14:40;16.45;;;5.35;;
18752;SDS011;9505;50.882;5.350;2022-08-01T08:17:06;11.45;;;4.88;;
18752;SDS011;9505;50.882;5.350;2022-08-01T08:19:32;20.65;;;6.10;;
18752;SDS011;9505;50.882;5.350;2022-08-01T08:21:59;20.67;;;6.50;;
18752;SDS011;9505;50.882;5.350;2022-08-01T08:24:25;9.68;;;4.28;;
18752;SDS011;9505;50.882;5.350;2022-08-01T08:26:55;13.50;;;5.25;;
18752;SDS011;9505;50.882;5.350;2022-08-01T08:29:24;14.25;;;5.10;;
18752;SDS011;9505;50.882;5.350;2022-08-01T08:31:51;17.30;;;5.50;;
18752;SDS011;9505;50.882;5.350;2022-08-01T08:34:17;11.65;;;4.88;;
18752;SDS011;9505;50.882;5.350;2022-08-01T08:36:43;13.02;;;4.38;;
18752;SDS011;9505;50.882;5.350;2022-08-01T08:39:09;13.30;;;4.80;;
18752;SDS011;9505;50.882;5.350;2022-08-01T08:41:35;12.48;;;4.70;;
18752;SDS011;9505;50.882;5.350;2022-08-01T08:44:02;12.98;;;4.97;;
18752;SDS011;9505;50.882;5.350;2022-08-01T08:46:29;15.27;;;4.97;;
18752;SDS011;9505;50.882;5.350;2022-08-01T08:48:59;14.82;;;5.40;;
18752;SDS011;9505;50.882;5.350;2022-08-01T08:51:26;12.05;;;4.07;;
18752;SDS011;9505;50.882;5.350;2022-08-01T08:53:55;17.92;;;5.28;;
18752;SDS011;9505;50.882;5.350;2022-08-01T08:56:21;11.60;;;4.20;;
18752;SDS011;9505;50.882;5.350;2022-08-01T08:58:49;12.93;;;4.55;;
18752;SDS011;9505;50.882;5.350;2022-08-01T09:01:16;8.27;;;3.85;;
18752;SDS011;9505;50.882;5.350;2022-08-01T09:03:42;8.20;;;2.88;;
18752;SDS011;9505;50.882;5.350;2022-08-01T09:06:09;11.60;;;3.65;;
18752;SDS011;9505;50.882;5.350;2022-08-01T09:08:35;11.43;;;3.33;;
18752;SDS011;9505;50.882;5.350;2022-08-01T09:11:01;10.18;;;3.55;;
18752;SDS011;9505;50.882;5.350;2022-08-01T09:13:28;12.80;;;3.50;;
18752;SDS011;9505;50.882;5.350;2022-08-01T09:15:54;9.15;;;3.22;;
18752;SDS011;9505;50.882;5.350;2022-08-01T09:18:31;10.70;;;3.75;;
18752;SDS011;9505;50.882;5.350;2022-08-01T09:26:15;7.88;;;3.13;;
18752;SDS011;9505;50.882;5.350;2022-08-01T09:28:43;8.80;;;3.17;;
18752;SDS011;9505;50.882;5.350;2022-08-01T09:31:14;15.77;;;4.60;;
18752;SDS011;9505;50.882;5.350;2022-08-01T09:33:48;10.68;;;3.45;;
18752;SDS011;9505;50.882;5.350;2022-08-01T09:36:17;8.88;;;3.47;;
18752;SDS011;9505;50.882;5.350;2022-08-01T09:38:44;5.47;;;2.47;;
18752;SDS011;9505;50.882;5.350;2022-08-01T09:41:10;13.10;;;3.45;;
18752;SDS011;9505;50.882;5.350;2022-08-01T09:43:36;9.82;;;3.30;;
18752;SDS011;9505;50.882;5.350;2022-08-01T09:46:09;8.75;;;3.20;;
18752;SDS011;9505;50.882;5.350;2022-08-01T09:48:36;8.93;;;2.75;;
18752;SDS011;9505;50.882;5.350;2022-08-01T09:51:04;11.90;;;3.58;;
18752;SDS011;9505;50.882;5.350;2022-08-01T09:53:41;5.88;;;2.78;;
18752;SDS011;9505;50.882;5.350;2022-08-01T09:56:12;6.53;;;2.45;;
18752;SDS011;9505;50.882;5.350;2022-08-01T10:01:23;7.38;;;2.90;;
18752;SDS011;9505;50.882;5.350;2022-08-01T10:06:30;8.25;;;2.50;;
18752;SDS011;9505;50.882;5.350;2022-08-01T10:08:56;5.80;;;2.30;;
18752;SDS011;9505;50.882;5.350;2022-08-01T10:11:22;5.78;;;1.52;;
18752;SDS011;9505;50.882;5.350;2022-08-01T10:13:48;4.70;;;1.77;;
18752;SDS011;9505;50.882;5.350;2022-08-01T10:16:14;11.18;;;2.47;;
18752;SDS011;9505;50.882;5.350;2022-08-01T10:18:40;5.93;;;1.70;;
18752;SDS011;9505;50.882;5.350;2022-08-01T10:21:07;9.75;;;2.72;;
18752;SDS011;9505;50.882;5.350;2022-08-01T10:23:35;10.18;;;2.50;;
18752;SDS011;9505;50.882;5.350;2022-08-01T10:26:01;8.95;;;2.30;;
18752;SDS011;9505;50.882;5.350;2022-08-01T10:28:30;9.25;;;2.40;;
18752;SDS011;9505;50.882;5.350;2022-08-01T10:30:57;7.82;;;1.90;;
18752;SDS011;9505;50.882;5.350;2022-08-01T10:33:23;12.82;;;3.05;;
18752;SDS011;9505;50.882;5.350;2022-08-01T10:35:52;12.10;;;3.10;;
18752;SDS011;9505;50.882;5.350;2022-08-01T10:38:18;10.43;;;2.72;;
18752;SDS011;9505;50.882;5.350;2022-08-01T10:40:43;9.20;;;2.35;;
18752;SDS011;9505;50.882;5.350;2022-08-01T10:43:10;11.10;;;2.60;;
18752;SDS011;9505;50.882;5.350;2022-08-01T10:45:37;7.80;;;1.83;;
18752;SDS011;9505;50.882;5.350;2022-08-01T10:50:48;7.63;;;1.92;;
18752;SDS011;9505;50.882;5.350;2022-08-01T10:53:22;6.72;;;1.88;;
18752;SDS011;9505;50.882;5.350;2022-08-01T10:58:29;5.45;;;1.67;;
18752;SDS011;9505;50.882;5.350;2022-08-01T11:03:39;18.02;;;3.85;;
18752;SDS011;9505;50.882;5.350;2022-08-01T11:06:17;10.82;;;2.55;;
18752;SDS011;9505;50.882;5.350;2022-08-01T11:08:52;5.45;;;1.80;;
18752;SDS011;9505;50.882;5.350;2022-08-01T11:11:19;6.18;;;1.73;;
18752;SDS011;9505;50.882;5.350;2022-08-01T11:16:37;4.70;;;1.85;;
18752;SDS011;9505;50.882;5.350;2022-08-01T11:19:04;12.10;;;2.92;;
18752;SDS011;9505;50.882;5.350;2022-08-01T11:21:57;5.53;;;1.90;;
18752;SDS011;9505;50.882;5.350;2022-08-01T11:27:28;8.68;;;2.40;;
18752;SDS011;9505;50.882;5.350;2022-08-01T11:35:31;7.43;;;2.30;;
18752;SDS011;9505;50.882;5.350;2022-08-01T11:41:09;7.88;;;1.75;;
18752;SDS011;9505;50.882;5.350;2022-08-01T11:51:48;9.38;;;2.22;;
18752;SDS011;9505;50.882;5.350;2022-08-01T11:54:24;8.80;;;2.28;;
18752;SDS011;9505;50.882;5.350;2022-08-01T11:56:53;9.02;;;2.35;;
18752;SDS011;9505;50.882;5.350;2022-08-01T11:59:21;7.15;;;1.98;;
18752;SDS011;9505;50.882;5.350;2022-08-01T12:01:47;14.13;;;3.25;;
18752;SDS011;9505;50.882;5.350;2022-08-01T12:04:13;10.40;;;2.58;;
18752;SDS011;9505;50.882;5.350;2022-08-01T12:06:38;7.18;;;1.83;;
18752;SDS011;9505;50.882;5.350;2022-08-01T12:11:43;8.30;;;2.13;;
18752;SDS011;9505;50.882;5.350;2022-08-01T12:14:15;22.13;;;3.95;;
18752;SDS011;9505;50.882;5.350;2022-08-01T12:16:47;7.72;;;2.10;;
18752;SDS011;9505;50.882;5.350;2022-08-01T12:19:21;7.97;;;2.28;;
18752;SDS011;9505;50.882;5.350;2022-08-01T12:22:31;6.15;;;2.20;;
18752;SDS011;9505;50.882;5.350;2022-08-01T12:24:40;9.63;;;2.45;;
18752;SDS011;9505;50.882;5.350;2022-08-01T12:27:08;9.63;;;2.78;;
18752;SDS011;9505;50.882;5.350;2022-08-01T12:32:01;6.28;;;2.00;;
18752;SDS011;9505;50.882;5.350;2022-08-01T12:34:28;10.00;;;2.50;;
18752;SDS011;9505;50.882;5.350;2022-08-01T12:36:57;11.35;;;2.30;;
18752;SDS011;9505;50.882;5.350;2022-08-01T12:39:33;10.02;;;2.55;;
18752;SDS011;9505;50.882;5.350;2022-08-01T12:42:00;7.88;;;2.05;;
18752;SDS011;9505;50.882;5.350;2022-08-01T12:44:27;7.45;;;1.92;;
18752;SDS011;9505;50.882;5.350;2022-08-01T12:46:54;5.40;;;1.65;;
18752;SDS011;9505;50.882;5.350;2022-08-01T12:49:22;7.90;;;2.03;;
18752;SDS011;9505;50.882;5.350;2022-08-01T12:51:49;5.10;;;1.55;;
18752;SDS011;9505;50.882;5.350;2022-08-01T12:54:15;6.22;;;1.67;;
18752;SDS011;9505;50.882;5.350;2022-08-01T12:56:40;6.15;;;1.60;;
18752;SDS011;9505;50.882;5.350;2022-08-01T12:59:25;14.85;;;2.95;;
18752;SDS011;9505;50.882;5.350;2022-08-01T13:01:52;7.45;;;1.58;;
18752;SDS011;9505;50.882;5.350;2022-08-01T13:04:19;17.75;;;3.15;;
18752;SDS011;9505;50.882;5.350;2022-08-01T13:06:46;6.85;;;1.85;;
18752;SDS011;9505;50.882;5.350;2022-08-01T13:09:12;11.30;;;2.03;;
18752;SDS011;9505;50.882;5.350;2022-08-01T13:11:39;8.88;;;1.73;;
18752;SDS011;9505;50.882;5.350;2022-08-01T13:14:06;7.15;;;1.85;;
18752;SDS011;9505;50.882;5.350;2022-08-01T13:16:32;8.05;;;1.88;;
18752;SDS011;9505;50.882;5.350;2022-08-01T13:19:10;9.45;;;2.08;;
18752;SDS011;9505;50.882;5.350;2022-08-01T13:21:35;4.20;;;1.05;;
18752;SDS011;9505;50.882;5.350;2022-08-01T13:29:17;9.18;;;2.15;;
18752;SDS011;9505;50.882;5.350;2022-08-01T13:31:48;11.68;;;2.50;;
18752;SDS011;9505;50.882;5.350;2022-08-01T13:34:14;10.45;;;2.40;;
18752;SDS011;9505;50.882;5.350;2022-08-01T13:36:40;8.35;;;1.77;;
18752;SDS011;9505;50.882;5.350;2022-08-01T13:39:06;9.88;;;2.33;;
18752;SDS011;9505;50.882;5.350;2022-08-01T13:41:50;10.07;;;2.25;;
18752;SDS011;9505;50.882;5.350;2022-08-01T13:44:16;9.10;;;2.03;;
18752;SDS011;9505;50.882;5.350;2022-08-01T13:46:43;9.50;;;2.03;;
18752;SDS011;9505;50.882;5.350;2022-08-01T13:49:09;12.23;;;2.25;;
18752;SDS011;9505;50.882;5.350;2022-08-01T13:51:36;11.32;;;2.60;;
18752;SDS011;9505;50.882;5.350;2022-08-01T13:54:03;13.98;;;2.75;;
18752;SDS011;9505;50.882;5.350;2022-08-01T13:56:29;10.77;;;2.47;;
18752;SDS011;9505;50.882;5.350;2022-08-01T13:58:56;9.05;;;2.00;;
18752;SDS011;9505;50.882;5.350;2022-08-01T14:01:22;9.68;;;2.03;;
18752;SDS011;9505;50.882;5.350;2022-08-01T14:03:49;8.68;;;2.13;;
18752;SDS011;9505;50.882;5.350;2022-08-01T14:06:16;5.85;;;1.60;;
18752;SDS011;9505;50.882;5.350;2022-08-01T14:08:43;12.65;;;2.88;;
18752;SDS011;9505;50.882;5.350;2022-08-01T14:11:09;5.45;;;1.42;;
18752;SDS011;9505;50.882;5.350;2022-08-01T14:13:35;8.20;;;1.77;;
18752;SDS011;9505;50.882;5.350;2022-08-01T14:16:05;10.05;;;2.03;;
18752;SDS011;9505;50.882;5.350;2022-08-01T14:18:32;7.10;;;1.65;;
18752;SDS011;9505;50.882;5.350;2022-08-01T14:20:57;4.93;;;1.63;;
18752;SDS011;9505;50.882;5.350;2022-08-01T14:23:23;7.45;;;1.88;;
18752;SDS011;9505;50.882;5.350;2022-08-01T14:25:49;7.60;;;1.95;;
18752;SDS011;9505;50.882;5.350;2022-08-01T14:28:14;7.68;;;2.13;;
18752;SDS011;9505;50.882;5.350;2022-08-01T14:30:40;7.47;;;1.98;;
18752;SDS011;9505;50.882;5.350;2022-08-01T14:33:07;10.32;;;2.53;;
18752;SDS011;9505;50.882;5.350;2022-08-01T14:35:34;9.15;;;2.47;;
18752;SDS011;9505;50.882;5.350;2022-08-01T14:37:59;5.18;;;1.60;;
18752;SDS011;9505;50.882;5.350;2022-08-01T14:40:25;7.13;;;1.95;;
18752;SDS011;9505;50.882;5.350;2022-08-01T14:42:51;7.35;;;1.98;;
18752;SDS011;9505;50.882;5.350;2022-08-01T14:45:16;10.80;;;2.45;;
18752;SDS011;9505;50.882;5.350;2022-08-01T14:47:42;14.13;;;2.92;;
18752;SDS011;9505;50.882;5.350;2022-08-01T14:50:10;6.95;;;1.98;;
18752;SDS011;9505;50.882;5.350;2022-08-01T14:52:37;7.22;;;2.00;;
18752;SDS011;9505;50.882;5.350;2022-08-01T14:55:04;9.45;;;2.38;;
18752;SDS011;9505;50.882;5.350;2022-08-01T14:57:35;8.88;;;2.28;;
18752;SDS011;9505;50.882;5.350;2022-08-01T15:00:01;8.75;;;2.08;;
18752;SDS011;9505;50.882;5.350;2022-08-01T15:02:29;9.27;;;2.40;;
18752;SDS011;9505;50.882;5.350;2022-08-01T15:04:55;9.10;;;2.40;;
18752;SDS011;9505;50.882;5.350;2022-08-01T15:07:21;9.88;;;2.63;;
18752;SDS011;9505;50.882;5.350;2022-08-01T15:09:46;25.05;;;3.80;;
18752;SDS011;9505;50.882;5.350;2022-08-01T15:12:12;9.68;;;1.90;;
18752;SDS011;9505;50.882;5.350;2022-08-01T15:14:38;5.93;;;2.15;;
18752;SDS011;9505;50.882;5.350;2022-08-01T15:17:20;4.97;;;1.58;;
18752;SDS011;9505;50.882;5.350;2022-08-01T15:19:47;10.20;;;2.22;;
18752;SDS011;9505;50.882;5.350;2022-08-01T15:22:14;12.50;;;2.70;;
18752;SDS011;9505;50.882;5.350;2022-08-01T15:24:40;10.88;;;2.42;;
18752;SDS011;9505;50.882;5.350;2022-08-01T15:27:06;7.75;;;1.70;;
18752;SDS011;9505;50.882;5.350;2022-08-01T15:29:32;7.97;;;2.20;;
18752;SDS011;9505;50.882;5.350;2022-08-01T15:31:59;7.95;;;1.73;;
18752;SDS011;9505;50.882;5.350;2022-08-01T15:34:25;9.75;;;2.25;;
18752;SDS011;9505;50.882;5.350;2022-08-01T15:36:51;14.77;;;2.92;;
18752;SDS011;9505;50.882;5.350;2022-08-01T15:39:17;7.43;;;1.98;;
18752;SDS011;9505;50.882;5.350;2022-08-01T15:41:42;6.95;;;2.20;;
18752;SDS011;9505;50.882;5.350;2022-08-01T15:44:08;8.32;;;1.98;;
18752;SDS011;9505;50.882;5.350;2022-08-01T15:46:34;8.23;;;2.10;;
18752;SDS011;9505;50.882;5.350;2022-08-01T15:49:06;9.52;;;2.28;;
18752;SDS011;9505;50.882;5.350;2022-08-01T15:51:32;11.32;;;2.70;;
18752;SDS011;9505;50.882;5.350;2022-08-01T15:53:58;8.77;;;2.13;;
18752;SDS011;9505;50.882;5.350;2022-08-01T15:56:28;9.88;;;2.40;;
18752;SDS011;9505;50.882;5.350;2022-08-01T15:58:54;7.50;;;2.00;;
18752;SDS011;9505;50.882;5.350;2022-08-01T16:01:20;23.65;;;4.10;;